Time;durP1;ratioP1;P1;durP2;ratioP2;P2;SDS_P1;SDS_P2;PMS_P1;PMS_P2;Temp;Humidity;BMP_temperature;BMP_pressure;BME280_temperature;BME280_humidity;BME280_pressure;Samples;Min_cycle;Max_cycle;Signal;HPM_P1;HPM_P2
2021/09/18 00:00:40;;;;;;;;;;;;;;;;;;5097131;28;20009;-65
2021/09/18 00:03:07;;;;;;;;;;;;;;;;;;5101190;28;20236;-68
2021/09/18 00:05:34;;;;;;;;;;;;;;;;;;5103615;28;20009;-66
2021/09/18 00:08:01;;;;;;;;;;;;;;;;;;5102904;28;20009;-66
2021/09/18 00:10:28;;;;;;;;;;;;;;;;;;5105241;28;20493;-66
2021/09/18 00:12:55;;;;;;;;;;;;;;;;;;5104991;28;20029;-66
2021/09/18 00:15:22;;;;;;;;;;;;;;;;;;5103341;28;20030;-66
2021/09/18 00:17:49;;;;;;;;;;;;;;;;;;5104538;28;20009;-66
2021/09/18 00:20:15;;;;;;;;;;;;;;;;;;5094222;28;20009;-66
2021/09/18 00:22:42;;;;;;;;;;;;;;;;;;5092937;28;20051;-66
2021/09/18 00:25:09;;;;;;;;;;;;;;;;;;5092370;28;20016;-66
2021/09/18 00:27:36;;;;;;;;;;;;;;;;;;5092769;28;20009;-65
2021/09/18 00:30:03;;;;;;;;;;;;;;;;;;5094255;28;20008;-66
2021/09/18 00:32:30;;;;;;;;;;;;;;;;;;5092723;28;20032;-66
2021/09/18 00:34:57;;;;;;;;;;;;;;;;;;5092623;28;20009;-65
2021/09/18 00:37:24;;;;;;;;;;;;;;;;;;5092851;28;20008;-66
2021/09/18 00:39:51;;;;;;;;;;;;;;;;;;5092968;28;20009;-65
2021/09/18 00:42:18;;;;;;;;;;;;;;;;;;5092701;28;20024;-67
2021/09/18 00:44:45;;;;;;;;;;;;;;;;;;5092495;28;20032;-67
2021/09/18 00:47:11;;;;;;;;;;;;;;;;;;5092174;28;20008;-67
2021/09/18 00:49:38;;;;;;;;;;;;;;;;;;5092831;28;20013;-66
2021/09/18 00:52:05;;;;;;;;;;;;;;;;;;5094329;28;20025;-66
2021/09/18 00:54:32;;;;;;;;;;;;;;;;;;5096979;28;20016;-66
2021/09/18 00:56:59;;;;;;;;;;;;;;;;;;5096966;28;20009;-65
2021/09/18 00:59:26;;;;;;;;;;;;;;;;;;5096294;28;20009;-66
2021/09/18 01:01:53;;;;;;;;;;;;;;;;;;5096430;28;20032;-66
2021/09/18 01:04:20;;;;;;;;;;;;;;;;;;5096338;28;20009;-66
2021/09/18 01:06:47;;;;;;;;;;;;;;;;;;5096399;28;20051;-66
2021/09/18 01:09:14;;;;;;;;;;;;;;;;;;5096275;28;20016;-65
2021/09/18 01:11:41;;;;;;;;;;;;;;;;;;5096188;28;20025;-66
2021/09/18 01:14:08;;;;;;;;;;;;;;;;;;5096226;28;20009;-66
2021/09/18 01:16:34;;;;;;;;;;;;;;;;;;5096739;28;20032;-66
2021/09/18 01:19:01;;;;;;;;;;;;;;;;;;5096487;28;20015;-66
2021/09/18 01:21:28;;;;;;;;;;;;;;;;;;5096490;28;20028;-68
2021/09/18 01:23:55;;;;;;;;;;;;;;;;;;5096729;28;20029;-66
2021/09/18 01:26:22;;;;;;;;;;;;;;;;;;5096321;28;20016;-65
2021/09/18 01:28:50;;;;;;;;;;;;;;;;;;5096233;28;20013;-66
2021/09/18 01:31:17;;;;;;;;;;;;;;;;;;5096729;28;20075;-67
2021/09/18 01:33:44;;;;;;;;;;;;;;;;;;5096159;28;20391;-66
2021/09/18 01:36:10;;;;;;;;;;;;;;;;;;5095942;28;20008;-65
2021/09/18 01:38:37;;;;;;;;;;;;;;;;;;5096334;28;20009;-66
2021/09/18 01:41:04;;;;;;;;;;;;;;;;;;5095463;28;20468;-66
2021/09/18 01:43:31;;;;;;;;;;;;;;;;;;5095699;28;20024;-66
2021/09/18 01:45:58;;;;;;;;;;;;;;;;;;5095589;28;20044;-65
2021/09/18 01:48:25;;;;;;;;;;;;;;;;;;5095601;28;20013;-66
2021/09/18 01:50:54;;;;;;;;;;;;;;;;;;5095968;28;20009;-66
2021/09/18 01:53:21;;;;;;;;;;;;;;;;;;5095194;28;20008;-67
2021/09/18 01:55:48;;;;;;;;;;;;;;;;;;5095163;28;20016;-66
2021/09/18 01:58:15;;;;;;;;;;;;;;;;;;5095583;28;20009;-66
2021/09/18 02:00:42;;;;;;;;;;;;;;;;;;5095430;28;20016;-66
2021/09/18 02:03:09;;;;;;;;;;;;;;;;;;5095302;28;20032;-65
2021/09/18 02:05:36;;;;;;;;;;;;;;;;;;5095325;28;20012;-66
2021/09/18 02:08:03;;;;;;;;;;;;;;;;;;5095571;28;20009;-66
2021/09/18 02:10:30;;;;;;;;;;;;;;;;;;5095888;28;20017;-66
2021/09/18 02:12:56;;;;;;;;;;;;;;;;;;5094913;28;20031;-66
2021/09/18 02:15:23;;;;;;;;;;;;;;;;;;5094783;28;20008;-66
2021/09/18 02:17:50;;;;;;;;;;;;;;;;;;5095264;28;20009;-66
2021/09/18 02:20:17;;;;;;;;;;;;;;;;;;5095012;28;20032;-66
2021/09/18 02:22:44;;;;;;;;;;;;;;;;;;5088586;22;20030;-66
2021/09/18 02:25:11;;;;;;;;;;;;;;;;;;5053998;28;20369;-66
2021/09/18 02:27:38;;;;;;;;;;;;;;;;;;5054254;28;20005;-66
2021/09/18 02:30:05;;;;;;;;;;;;;;;;;;5054676;28;20010;-65
2021/09/18 02:32:34;;;;;;;;;;;;;;;;;;5053859;28;20432;-66
2021/09/18 02:35:01;;;;;;;;;;;;;;;;;;5054008;28;20014;-66
2021/09/18 02:37:28;;;;;;;;;;;;;;;;;;5054276;28;20010;-66
2021/09/18 02:39:55;;;;;;;;;;;;;;;;;;5054292;28;20032;-66
2021/09/18 02:42:22;;;;;;;;;;;;;;;;;;5053661;28;20124;-66
2021/09/18 02:44:49;;;;;;;;;;;;;;;;;;5053929;28;20009;-66
2021/09/18 02:47:16;;;;;;;;;;;;;;;;;;5054188;28;20037;-66
2021/09/18 02:49:43;;;;;;;;;;;;;;;;;;5053820;28;20010;-66
2021/09/18 02:52:10;;;;;;;;;;;;;;;;;;5054020;28;20025;-65
2021/09/18 02:54:36;;;;;;;;;;;;;;;;;;5053778;28;20009;-66
2021/09/18 02:57:03;;;;;;;;;;;;;;;;;;5053754;28;20009;-66
2021/09/18 02:59:30;;;;;;;;;;;;;;;;;;5054090;28;20017;-66
2021/09/18 03:01:57;;;;;;;;;;;;;;;;;;5053999;28;20025;-66
2021/09/18 03:04:24;;;;;;;;;;;;;;;;;;5053647;28;20026;-65
2021/09/18 03:06:51;;;;;;;;;;;;;;;;;;5053740;28;20083;-66
2021/09/18 03:09:18;;;;;;;;;;;;;;;;;;5053560;28;20020;-67
2021/09/18 03:11:45;;;;;;;;;;;;;;;;;;5053869;28;20025;-67
2021/09/18 03:14:12;;;;;;;;;;;;;;;;;;5053063;28;20013;-67
2021/09/18 03:16:39;;;;;;;;;;;;;;;;;;5053408;28;20010;-68
2021/09/18 03:19:06;;;;;;;;;;;;;;;;;;5053258;28;20009;-67
2021/09/18 03:21:33;;;;;;;;;;;;;;;;;;5053565;28;20010;-67
2021/09/18 03:24:00;;;;;;;;;;;;;;;;;;5053090;28;20032;-68
2021/09/18 03:26:26;;;;;;;;;;;;;;;;;;5053072;28;20010;-68
2021/09/18 03:28:53;;;;;;;;;;;;;;;;;;5053186;28;20373;-68
2021/09/18 03:31:20;;;;;;;;;;;;;;;;;;5053135;28;20020;-67
2021/09/18 03:33:47;;;;;;;;;;;;;;;;;;5053364;28;20075;-68
2021/09/18 03:36:14;;;;;;;;;;;;;;;;;;5052786;28;20010;-65
2021/09/18 03:38:41;;;;;;;;;;;;;;;;;;5053396;28;20010;-65
2021/09/18 03:41:08;;;;;;;;;;;;;;;;;;5052935;28;20017;-65
2021/09/18 03:43:35;;;;;;;;;;;;;;;;;;5053182;28;20026;-65
2021/09/18 03:46:02;;;;;;;;;;;;;;;;;;5052574;28;20014;-65
2021/09/18 03:48:29;;;;;;;;;;;;;;;;;;5052867;28;20014;-65
2021/09/18 03:50:56;;;;;;;;;;;;;;;;;;5053103;28;20020;-66
2021/09/18 03:53:23;;;;;;;;;;;;;;;;;;5052641;28;20029;-67
2021/09/18 03:55:49;;;;;;;;;;;;;;;;;;5052509;28;20010;-66
2021/09/18 03:58:16;;;;;;;;;;;;;;;;;;5053143;28;20017;-67
2021/09/18 04:00:43;;;;;;;;;;;;;;;;;;5052900;28;20358;-65
2021/09/18 04:03:10;;;;;;;;;;;;;;;;;;5052711;28;20030;-65
2021/09/18 04:05:38;;;;;;;;;;;;;;;;;;5052446;28;20016;-67
2021/09/18 04:08:05;;;;;;;;;;;;;;;;;;5052664;28;20110;-68
2021/09/18 04:10:32;;;;;;;;;;;;;;;;;;5052837;28;20013;-67
2021/09/18 04:12:59;;;;;;;;;;;;;;;;;;5052529;28;20026;-67
2021/09/18 04:15:26;;;;;;;;;;;;;;;;;;5052387;28;20046;-67
2021/09/18 04:17:53;;;;;;;;;;;;;;;;;;5053071;28;20103;-68
2021/09/18 04:20:20;;;;;;;;;;;;;;;;;;5052963;28;20009;-68
2021/09/18 04:22:47;;;;;;;;;;;;;;;;;;5052387;28;20036;-68
2021/09/18 04:25:14;;;;;;;;;;;;;;;;;;5052536;28;20010;-68
2021/09/18 04:27:41;;;;;;;;;;;;;;;;;;5050969;28;20016;-68
2021/09/18 04:30:08;;;;;;;;;;;;;;;;;;5052757;28;20010;-68
2021/09/18 04:32:35;;;;;;;;;;;;;;;;;;5052823;28;20025;-68
2021/09/18 04:35:02;;;;;;;;;;;;;;;;;;5052110;28;20009;-67
2021/09/18 04:37:29;;;;;;;;;;;;;;;;;;5052524;28;20010;-68
2021/09/18 04:39:56;;;;;;;;;;;;;;;;;;5052458;28;20019;-68
2021/09/18 04:42:22;;;;;;;;;;;;;;;;;;5051941;28;20074;-68
2021/09/18 04:44:49;;;;;;;;;;;;;;;;;;5052628;28;20026;-68
2021/09/18 04:47:16;;;;;;;;;;;;;;;;;;5052475;28;20032;-65
2021/09/18 04:49:43;;;;;;;;;;;;;;;;;;5052264;28;20010;-68
2021/09/18 04:52:10;;;;;;;;;;;;;;;;;;5052012;28;20025;-68
2021/09/18 04:54:37;;;;;;;;;;;;;;;;;;5051996;28;20009;-68
2021/09/18 04:57:04;;;;;;;;;;;;;;;;;;5052020;28;20017;-68
2021/09/18 04:59:31;;;;;;;;;;;;;;;;;;5052068;28;20056;-67
2021/09/18 05:01:58;;;;;;;;;;;;;;;;;;5052148;28;20032;-68
2021/09/18 05:04:25;;;;;;;;;;;;;;;;;;5051830;28;20022;-68
2021/09/18 05:06:52;;;;;;;;;;;;;;;;;;5051792;28;20010;-68
2021/09/18 05:09:19;;;;;;;;;;;;;;;;;;5052081;28;20016;-68
2021/09/18 05:11:45;;;;;;;;;;;;;;;;;;5051998;28;20029;-68
2021/09/18 05:14:13;;;;;;;;;;;;;;;;;;5052078;28;20010;-68
2021/09/18 05:16:40;;;;;;;;;;;;;;;;;;5051569;28;20009;-68
2021/09/18 05:19:07;;;;;;;;;;;;;;;;;;5052140;28;20043;-68
2021/09/18 05:21:33;;;;;;;;;;;;;;;;;;5051409;28;20010;-68
2021/09/18 05:24:00;;;;;;;;;;;;;;;;;;5051372;28;20021;-68
2021/09/18 05:26:27;;;;;;;;;;;;;;;;;;5051982;28;20016;-68
2021/09/18 05:28:54;;;;;;;;;;;;;;;;;;5052086;28;20010;-68
2021/09/18 05:31:21;;;;;;;;;;;;;;;;;;5051835;28;20010;-68
2021/09/18 05:33:48;;;;;;;;;;;;;;;;;;5051909;28;20017;-69
2021/09/18 05:36:15;;;;;;;;;;;;;;;;;;5051190;28;20032;-68
2021/09/18 05:38:42;;;;;;;;;;;;;;;;;;5053953;28;20009;-68
2021/09/18 05:41:09;;;;;;;;;;;;;;;;;;5055527;28;20009;-68
2021/09/18 05:43:36;;;;;;;;;;;;;;;;;;5055324;28;20408;-68
2021/09/18 05:46:03;;;;;;;;;;;;;;;;;;5055121;28;20009;-67
2021/09/18 05:48:29;;;;;;;;;;;;;;;;;;5055200;28;20017;-68
2021/09/18 05:50:56;;;;;;;;;;;;;;;;;;5055132;28;20473;-68
2021/09/18 05:53:23;;;;;;;;;;;;;;;;;;5055293;28;20040;-68
2021/09/18 05:55:50;;;;;;;;;;;;;;;;;;5055054;28;20010;-67
2021/09/18 05:58:17;;;;;;;;;;;;;;;;;;5054952;28;20479;-68
2021/09/18 06:00:44;;;;;;;;;;;;;;;;;;5054963;28;20017;-67
2021/09/18 06:03:11;;;;;;;;;;;;;;;;;;5055110;28;20026;-68
2021/09/18 06:05:38;;;;;;;;;;;;;;;;;;5054328;28;20456;-68
2021/09/18 06:08:05;;;;;;;;;;;;;;;;;;5055100;28;20016;-68
2021/09/18 06:10:32;;;;;;;;;;;;;;;;;;5054876;28;20016;-67
2021/09/18 06:12:59;;;;;;;;;;;;;;;;;;5054723;28;20370;-68
2021/09/18 06:15:25;;;;;;;;;;;;;;;;;;5054690;28;20013;-67
2021/09/18 06:17:52;;;;;;;;;;;;;;;;;;5054779;28;20017;-67
2021/09/18 06:20:19;;;;;;;;;;;;;;;;;;5054334;28;20732;-67
2021/09/18 06:22:46;;;;;;;;;;;;;;;;;;5054453;28;20029;-68
2021/09/18 06:25:13;;;;;;;;;;;;;;;;;;5054688;28;20032;-68
2021/09/18 06:27:40;;;;;;;;;;;;;;;;;;5054317;28;20015;-67
2021/09/18 06:30:07;;;;;;;;;;;;;;;;;;5054557;28;20009;-68
2021/09/18 06:32:34;;;;;;;;;;;;;;;;;;5054361;28;20052;-65
2021/09/18 06:35:01;;;;;;;;;;;;;;;;;;5054085;28;20020;-65
2021/09/18 06:37:28;;;;;;;;;;;;;;;;;;5054475;28;20010;-66
2021/09/18 06:39:55;;;;;;;;;;;;;;;;;;5054504;28;20010;-65
2021/09/18 06:42:22;;;;;;;;;;;;;;;;;;5054077;28;20504;-68
2021/09/18 06:44:48;;;;;;;;;;;;;;;;;;5054059;28;20021;-67
2021/09/18 06:47:15;;;;;;;;;;;;;;;;;;5054064;28;20016;-69
2021/09/18 06:49:42;;;;;;;;;;;;;;;;;;5053018;28;20473;-67
2021/09/18 06:52:09;;;;;;;;;;;;;;;;;;5054103;28;20032;-67
2021/09/18 06:54:36;;;;;;;;;;;;;;;;;;5053993;28;20026;-67
2021/09/18 06:57:03;;;;;;;;;;;;;;;;;;5053788;28;20373;-67
2021/09/18 06:59:30;;;;;;;;;;;;;;;;;;5054074;28;20016;-68
2021/09/18 07:01:57;;;;;;;;;;;;;;;;;;5053905;28;20026;-67
2021/09/18 07:04:24;;;;;;;;;;;;;;;;;;5053642;28;20484;-67
2021/09/18 07:06:51;;;;;;;;;;;;;;;;;;5053688;28;20024;-66
2021/09/18 07:09:18;;;;;;;;;;;;;;;;;;5053941;28;20010;-67
2021/09/18 07:11:45;;;;;;;;;;;;;;;;;;5053406;28;20025;-67
2021/09/18 07:14:11;;;;;;;;;;;;;;;;;;5053350;28;20488;-66
2021/09/18 07:16:38;;;;;;;;;;;;;;;;;;5053263;28;20009;-67
2021/09/18 07:19:05;;;;;;;;;;;;;;;;;;5053705;28;20010;-67
2021/09/18 07:21:32;;;;;;;;;;;;;;;;;;5053364;28;20416;-67
2021/09/18 07:23:59;;;;;;;;;;;;;;;;;;5053206;28;20021;-66
2021/09/18 07:26:26;;;;;;;;;;;;;;;;;;5052958;28;20485;-67
2021/09/18 07:28:53;;;;;;;;;;;;;;;;;;5053468;28;20010;-66
2021/09/18 07:31:20;;;;;;;;;;;;;;;;;;5053240;28;20013;-66
2021/09/18 07:33:47;;;;;;;;;;;;;;;;;;5053130;28;20009;-66
2021/09/18 07:36:15;;;;;;;;;;;;;;;;;;5053166;28;20036;-67
2021/09/18 07:38:42;;;;;;;;;;;;;;;;;;5053250;28;20009;-67
2021/09/18 07:41:09;;;;;;;;;;;;;;;;;;5052662;28;20016;-67
2021/09/18 07:43:35;;;;;;;;;;;;;;;;;;5052669;28;20036;-67
2021/09/18 07:46:03;;;;;;;;;;;;;;;;;;5053007;28;20010;-66
2021/09/18 07:48:29;;;;;;;;;;;;;;;;;;5052948;28;20016;-66
2021/09/18 07:50:56;;;;;;;;;;;;;;;;;;5052786;28;20014;-67
2021/09/18 07:53:23;;;;;;;;;;;;;;;;;;5052785;28;20026;-67
2021/09/18 07:55:50;;;;;;;;;;;;;;;;;;5052474;28;20520;-65
2021/09/18 07:58:17;;;;;;;;;;;;;;;;;;5052871;28;20016;-67
2021/09/18 08:00:44;;;;;;;;;;;;;;;;;;5052677;28;20014;-66
2021/09/18 08:03:11;;;;;;;;;;;;;;;;;;5052287;28;20504;-67
2021/09/18 08:05:38;;;;;;;;;;;;;;;;;;5052508;28;20028;-66
2021/09/18 08:08:05;;;;;;;;;;;;;;;;;;5052816;28;20100;-66
2021/09/18 08:10:34;;;;;;;;;;;;;;;;;;5052483;28;20009;-67
2021/09/18 08:13:00;;;;;;;;;;;;;;;;;;5052293;28;20076;-66
2021/09/18 08:15:27;;;;;;;;;;;;;;;;;;5052188;28;20481;-67
2021/09/18 08:17:54;;;;;;;;;;;;;;;;;;5052631;28;20020;-66
2021/09/18 08:20:21;;;;;;;;;;;;;;;;;;5052657;28;20009;-65
2021/09/18 08:22:48;;;;;;;;;;;;;;;;;;5074120;22;20036;-68
2021/09/18 08:25:15;;;;;;;;;;;;;;;;;;5047812;28;20024;-68
2021/09/18 08:27:42;;;;;;;;;;;;;;;;;;5052004;28;20468;-68
2021/09/18 08:30:09;;;;;;;;;;;;;;;;;;5052631;28;20009;-69
2021/09/18 08:32:36;;;;;;;;;;;;;;;;;;5052251;28;20040;-68
2021/09/18 08:35:03;;;;;;;;;;;;;;;;;;5051956;28;20486;-69
2021/09/18 08:37:30;;;;;;;;;;;;;;;;;;5053973;28;20010;-68
2021/09/18 08:39:57;;;;;;;;;;;;;;;;;;5054487;28;20009;-68
2021/09/18 08:42:23;;;;;;;;;;;;;;;;;;5053976;28;20519;-68
2021/09/18 08:44:50;;;;;;;;;;;;;;;;;;5052141;28;20025;-68
2021/09/18 08:47:17;;;;;;;;;;;;;;;;;;5052344;28;20010;-68
2021/09/18 08:49:44;;;;;;;;;;;;;;;;;;5052688;28;20493;-68
2021/09/18 08:52:11;;;;;;;;;;;;;;;;;;5052185;28;20026;-68
2021/09/18 08:54:38;;;;;;;;;;;;;;;;;;5051974;28;20013;-68
2021/09/18 08:57:05;;;;;;;;;;;;;;;;;;5051848;28;20016;-68
2021/09/18 08:59:32;;;;;;;;;;;;;;;;;;5052054;28;20010;-68
2021/09/18 09:01:59;;;;;;;;;;;;;;;;;;5051961;28;20013;-68
2021/09/18 09:04:26;;;;;;;;;;;;;;;;;;5051525;28;20028;-68
2021/09/18 09:06:53;;;;;;;;;;;;;;;;;;5051716;28;20013;-68
2021/09/18 09:09:19;;;;;;;;;;;;;;;;;;5052234;28;20013;-68
2021/09/18 09:11:46;;;;;;;;;;;;;;;;;;5051874;28;20009;-69
2021/09/18 09:14:13;;;;;;;;;;;;;;;;;;5055199;28;20032;-68
2021/09/18 09:16:40;;;;;;;;;;;;;;;;;;5056230;28;20009;-68
2021/09/18 09:19:07;;;;;;;;;;;;;;;;;;5056023;28;20010;-68
2021/09/18 09:21:34;;;;;;;;;;;;;;;;;;5055727;28;20016;-68
2021/09/18 09:24:01;;;;;;;;;;;;;;;;;;5055125;28;20389;-68
2021/09/18 09:26:28;;;;;;;;;;;;;;;;;;5055966;28;20009;-68
2021/09/18 09:28:55;;;;;;;;;;;;;;;;;;5055877;28;20020;-68
2021/09/18 09:31:25;;;;;;;;;;;;;;;;;;5055777;28;20014;-68
2021/09/18 09:33:52;;;;;;;;;;;;;;;;;;5055552;28;20079;-68
2021/09/18 09:36:19;;;;;;;;;;;;;;;;;;5055081;28;20010;-68
2021/09/18 09:38:46;;;;;;;;;;;;;;;;;;5055864;28;20009;-69
2021/09/18 09:41:13;;;;;;;;;;;;;;;;;;5056568;28;20036;-68
2021/09/18 09:43:40;;;;;;;;;;;;;;;;;;5056153;28;20025;-68
2021/09/18 09:46:07;;;;;;;;;;;;;;;;;;5055782;28;20025;-68
2021/09/18 09:48:34;;;;;;;;;;;;;;;;;;5055814;28;20376;-68
2021/09/18 09:51:01;;;;;;;;;;;;;;;;;;5056953;28;20009;-68
2021/09/18 09:53:28;;;;;;;;;;;;;;;;;;5056055;28;20025;-68
2021/09/18 09:55:55;;;;;;;;;;;;;;;;;;5055096;28;20009;-68
2021/09/18 09:58:22;;;;;;;;;;;;;;;;;;5054785;28;20346;-68
2021/09/18 10:00:51;;;;;;;;;;;;;;;;;;5055447;28;20009;-68
2021/09/18 10:03:18;;;;;;;;;;;;;;;;;;5054879;28;20377;-67
2021/09/18 10:05:44;;;;;;;;;;;;;;;;;;5055730;28;20025;-68
2021/09/18 10:08:11;;;;;;;;;;;;;;;;;;5055893;28;20009;-68
2021/09/18 10:10:38;;;;;;;;;;;;;;;;;;5054824;28;20408;-68
2021/09/18 10:13:05;;;;;;;;;;;;;;;;;;5054799;28;20029;-69
2021/09/18 10:15:32;;;;;;;;;;;;;;;;;;5055075;28;20017;-67
2021/09/18 10:18:01;;;;;;;;;;;;;;;;;;5054602;28;20476;-69
2021/09/18 10:23:17;;;;;;;;;;;;;;;;;;5054918;28;20020;-68
2021/09/18 10:25:45;;;;;;;;;;;;;;;;;;5053401;28;20025;-68
2021/09/18 10:28:13;;;;;;;;;;;;;;;;;;5054705;28;20060;-67
2021/09/18 10:30:39;;;;;;;;;;;;;;;;;;5054774;28;20063;-68
2021/09/18 10:33:06;;;;;;;;;;;;;;;;;;5055095;28;20052;-68
2021/09/18 10:35:33;;;;;;;;;;;;;;;;;;5055089;28;20013;-68
2021/09/18 10:38:00;;;;;;;;;;;;;;;;;;5055632;28;20461;-68
2021/09/18 10:40:27;;;;;;;;;;;;;;;;;;5055651;28;20016;-68
2021/09/18 10:42:54;;;;;;;;;;;;;;;;;;5054188;28;20500;-68
2021/09/18 10:45:21;;;;;;;;;;;;;;;;;;5053984;28;20026;-68
2021/09/18 10:47:48;;;;;;;;;;;;;;;;;;5054225;28;20033;-68
2021/09/18 10:50:15;;;;;;;;;;;;;;;;;;5054153;28;20010;-68
2021/09/18 10:52:42;;;;;;;;;;;;;;;;;;5054424;28;20026;-68
2021/09/18 10:55:09;;;;;;;;;;;;;;;;;;5053694;28;20373;-68
2021/09/18 10:57:36;;;;;;;;;;;;;;;;;;5054695;28;20018;-68
2021/09/18 11:00:03;;;;;;;;;;;;;;;;;;5054250;28;20010;-68
2021/09/18 11:02:30;;;;;;;;;;;;;;;;;;5053650;28;20404;-68
2021/09/18 11:04:57;;;;;;;;;;;;;;;;;;5053880;28;20022;-68
2021/09/18 11:07:24;;;;;;;;;;;;;;;;;;5053639;28;20014;-68
2021/09/18 11:09:52;;;;;;;;;;;;;;;;;;5053821;28;20016;-68
2021/09/18 11:12:18;;;;;;;;;;;;;;;;;;5053629;28;20025;-68
2021/09/18 11:14:45;;;;;;;;;;;;;;;;;;5053357;28;20124;-68
2021/09/18 11:17:12;;;;;;;;;;;;;;;;;;5053514;28;20362;-68
2021/09/18 11:19:39;;;;;;;;;;;;;;;;;;5053701;28;20010;-68
2021/09/18 11:22:06;;;;;;;;;;;;;;;;;;5053307;28;20021;-69
2021/09/18 11:24:33;;;;;;;;;;;;;;;;;;5052963;28;20465;-68
2021/09/18 11:27:01;;;;;;;;;;;;;;;;;;5053698;28;20009;-68
2021/09/18 11:29:29;;;;;;;;;;;;;;;;;;5053474;28;20057;-68
2021/09/18 11:31:56;;;;;;;;;;;;;;;;;;5053351;28;20014;-68
2021/09/18 11:34:23;;;;;;;;;;;;;;;;;;5053415;28;20016;-68
2021/09/18 11:36:49;;;;;;;;;;;;;;;;;;5052708;28;20622;-68
2021/09/18 11:39:16;;;;;;;;;;;;;;;;;;5053523;28;20100;-68
2021/09/18 11:41:43;;;;;;;;;;;;;;;;;;5053308;28;20009;-68
2021/09/18 11:44:10;;;;;;;;;;;;;;;;;;5052939;28;20026;-68
2021/09/18 11:46:37;;;;;;;;;;;;;;;;;;5052891;28;20033;-68
2021/09/18 11:49:04;;;;;;;;;;;;;;;;;;5052824;28;20152;-68
2021/09/18 11:51:31;;;;;;;;;;;;;;;;;;5052851;28;20009;-68
2021/09/18 11:53:58;;;;;;;;;;;;;;;;;;5052607;28;20496;-67
2021/09/18 11:56:25;;;;;;;;;;;;;;;;;;5052807;28;20019;-68
2021/09/18 11:58:52;;;;;;;;;;;;;;;;;;5052946;28;20010;-68
2021/09/18 12:01:19;;;;;;;;;;;;;;;;;;5052854;28;20476;-68
2021/09/18 12:03:46;;;;;;;;;;;;;;;;;;5053150;28;20033;-68
2021/09/18 12:06:13;;;;;;;;;;;;;;;;;;5052222;28;20021;-68
2021/09/18 12:08:40;;;;;;;;;;;;;;;;;;5052959;28;20010;-68
2021/09/18 12:11:07;;;;;;;;;;;;;;;;;;5052660;28;20380;-68
2021/09/18 12:13:34;;;;;;;;;;;;;;;;;;5052845;28;20026;-68
2021/09/18 12:16:03;;;;;;;;;;;;;;;;;;5051974;28;20244;-68
2021/09/18 12:18:30;;;;;;;;;;;;;;;;;;5053106;28;20010;-68
2021/09/18 12:20:57;;;;;;;;;;;;;;;;;;5053713;28;20010;-69
2021/09/18 12:23:24;;;;;;;;;;;;;;;;;;5052932;28;20527;-69
2021/09/18 12:25:51;;;;;;;;;;;;;;;;;;5053158;28;20025;-68
2021/09/18 12:28:18;;;;;;;;;;;;;;;;;;5053543;28;20033;-68
2021/09/18 12:30:44;;;;;;;;;;;;;;;;;;5052403;28;20009;-68
2021/09/18 12:33:11;;;;;;;;;;;;;;;;;;5052462;28;20026;-68
2021/09/18 12:35:38;;;;;;;;;;;;;;;;;;5052514;28;20032;-68
2021/09/18 12:38:05;;;;;;;;;;;;;;;;;;5052609;28;20432;-68
2021/09/18 12:40:32;;;;;;;;;;;;;;;;;;5052323;28;20009;-68
2021/09/18 12:42:59;;;;;;;;;;;;;;;;;;5052192;28;20396;-68
2021/09/18 12:45:26;;;;;;;;;;;;;;;;;;5052514;28;20030;-68
2021/09/18 12:47:53;;;;;;;;;;;;;;;;;;5051643;28;20016;-68
2021/09/18 12:50:21;;;;;;;;;;;;;;;;;;5051981;28;20499;-68
2021/09/18 12:52:48;;;;;;;;;;;;;;;;;;5052476;28;20025;-68
2021/09/18 12:55:14;;;;;;;;;;;;;;;;;;5052249;28;20009;-68
2021/09/18 12:57:41;;;;;;;;;;;;;;;;;;5052134;28;20488;-67
2021/09/18 13:00:08;;;;;;;;;;;;;;;;;;5052252;28;20009;-68
2021/09/18 13:02:35;;;;;;;;;;;;;;;;;;5052174;28;20341;-68
2021/09/18 13:05:03;;;;;;;;;;;;;;;;;;5051760;28;20492;-68
2021/09/18 13:07:30;;;;;;;;;;;;;;;;;;5052651;28;20017;-68
2021/09/18 13:09:57;;;;;;;;;;;;;;;;;;5051975;28;20009;-68
2021/09/18 13:12:24;;;;;;;;;;;;;;;;;;5052176;28;20025;-68
2021/09/18 13:14:51;;;;;;;;;;;;;;;;;;5052224;28;20032;-68
2021/09/18 13:17:18;;;;;;;;;;;;;;;;;;5052195;28;20009;-68
2021/09/18 13:19:44;;;;;;;;;;;;;;;;;;5052632;28;20009;-68
2021/09/18 13:22:12;;;;;;;;;;;;;;;;;;5052991;28;20033;-68
2021/09/18 13:24:39;;;;;;;;;;;;;;;;;;5052466;28;20044;-67
2021/09/18 13:27:05;;;;;;;;;;;;;;;;;;5052677;28;20109;-68
2021/09/18 13:29:32;;;;;;;;;;;;;;;;;;5052079;28;20010;-68
2021/09/18 13:31:59;;;;;;;;;;;;;;;;;;5052367;28;20491;-68
2021/09/18 13:34:26;;;;;;;;;;;;;;;;;;5052060;28;20025;-67
2021/09/18 13:36:53;;;;;;;;;;;;;;;;;;5052329;28;20010;-68
2021/09/18 13:39:20;;;;;;;;;;;;;;;;;;5052748;28;20465;-68
2021/09/18 13:41:47;;;;;;;;;;;;;;;;;;5053558;28;20020;-70
2021/09/18 13:44:14;;;;;;;;;;;;;;;;;;5053437;28;20032;-68
2021/09/18 13:46:41;;;;;;;;;;;;;;;;;;5051600;28;20492;-68
2021/09/18 13:49:08;;;;;;;;;;;;;;;;;;5052022;28;20010;-68
2021/09/18 13:51:35;;;;;;;;;;;;;;;;;;5052130;28;20017;-68
2021/09/18 13:54:01;;;;;;;;;;;;;;;;;;5051690;28;20508;-68
2021/09/18 13:56:28;;;;;;;;;;;;;;;;;;5051712;28;20010;-68
2021/09/18 13:58:55;;;;;;;;;;;;;;;;;;5053241;28;20020;-68
2021/09/18 14:01:22;;;;;;;;;;;;;;;;;;5054878;28;20009;-68
2021/09/18 14:03:49;;;;;;;;;;;;;;;;;;5055560;28;20026;-67
2021/09/18 14:06:16;;;;;;;;;;;;;;;;;;5055050;28;20044;-68
2021/09/18 14:08:44;;;;;;;;;;;;;;;;;;5055031;28;20010;-67
2021/09/18 14:11:11;;;;;;;;;;;;;;;;;;5055075;28;20016;-68
2021/09/18 14:13:37;;;;;;;;;;;;;;;;;;5055598;28;20399;-68
2021/09/18 14:16:04;;;;;;;;;;;;;;;;;;5055162;28;20016;-68
2021/09/18 14:18:31;;;;;;;;;;;;;;;;;;5055223;28;20010;-67
2021/09/18 14:20:59;;;;;;;;;;;;;;;;;;5054986;28;20468;-67
2021/09/18 14:23:26;;;;;;;;;;;;;;;;;;5073154;22;20032;-66
2021/09/18 14:25:53;;;;;;;;;;;;;;;;;;5052855;28;20073;-65
2021/09/18 14:28:20;;;;;;;;;;;;;;;;;;5043104;28;20001;-66
2021/09/18 14:30:46;;;;;;;;;;;;;;;;;;5053959;28;20376;-65
2021/09/18 14:33:13;;;;;;;;;;;;;;;;;;5045850;28;20017;-65
2021/09/18 14:35:40;;;;;;;;;;;;;;;;;;5054046;28;20013;-65
2021/09/18 14:38:07;;;;;;;;;;;;;;;;;;5054072;28;20491;-65
2021/09/18 14:40:34;;;;;;;;;;;;;;;;;;5054155;28;20014;-65
2021/09/18 14:43:01;;;;;;;;;;;;;;;;;;5054028;28;20025;-65
2021/09/18 14:45:28;;;;;;;;;;;;;;;;;;5053966;28;20016;-66
2021/09/18 14:47:55;;;;;;;;;;;;;;;;;;5054135;28;20013;-65
2021/09/18 14:50:22;;;;;;;;;;;;;;;;;;5053977;28;20457;-66
2021/09/18 14:52:49;;;;;;;;;;;;;;;;;;5053844;28;20033;-65
2021/09/18 14:55:16;;;;;;;;;;;;;;;;;;5054016;28;20009;-65
2021/09/18 14:57:43;;;;;;;;;;;;;;;;;;5053873;28;20416;-65
2021/09/18 15:00:10;;;;;;;;;;;;;;;;;;5053864;28;20071;-65
2021/09/18 15:02:37;;;;;;;;;;;;;;;;;;5053824;28;20026;-65
2021/09/18 15:05:05;;;;;;;;;;;;;;;;;;5053681;28;20009;-66
2021/09/18 15:07:32;;;;;;;;;;;;;;;;;;5053163;28;20099;-65
2021/09/18 15:09:58;;;;;;;;;;;;;;;;;;5053200;28;20013;-66
2021/09/18 15:12:25;;;;;;;;;;;;;;;;;;5053398;28;20014;-65
2021/09/18 15:14:52;;;;;;;;;;;;;;;;;;5053465;28;20010;-66
2021/09/18 15:17:19;;;;;;;;;;;;;;;;;;5053561;28;20016;-65
2021/09/18 15:19:47;;;;;;;;;;;;;;;;;;5053284;28;20009;-65
2021/09/18 15:22:14;;;;;;;;;;;;;;;;;;5053363;28;20067;-65
2021/09/18 15:24:41;;;;;;;;;;;;;;;;;;5053441;28;20009;-66
2021/09/18 15:27:08;;;;;;;;;;;;;;;;;;5053053;28;20026;-65
2021/09/18 15:29:35;;;;;;;;;;;;;;;;;;5053414;28;20017;-66
2021/09/18 15:32:02;;;;;;;;;;;;;;;;;;5053042;28;20016;-65
2021/09/18 15:34:29;;;;;;;;;;;;;;;;;;5052930;28;20026;-65
2021/09/18 15:36:56;;;;;;;;;;;;;;;;;;5053062;28;20010;-65
2021/09/18 15:39:23;;;;;;;;;;;;;;;;;;5053394;28;20392;-65
2021/09/18 15:41:50;;;;;;;;;;;;;;;;;;5052968;28;20014;-65
2021/09/18 15:44:17;;;;;;;;;;;;;;;;;;5052801;28;20555;-65
2021/09/18 15:46:44;;;;;;;;;;;;;;;;;;5052773;28;20025;-66
2021/09/18 15:49:11;;;;;;;;;;;;;;;;;;5052715;28;20032;-65
2021/09/18 15:51:38;;;;;;;;;;;;;;;;;;5052776;28;20010;-65
2021/09/18 15:54:05;;;;;;;;;;;;;;;;;;5052732;28;20032;-65
2021/09/18 15:56:32;;;;;;;;;;;;;;;;;;5052867;28;20016;-65
2021/09/18 15:58:59;;;;;;;;;;;;;;;;;;5053288;28;20010;-65
2021/09/18 16:01:26;;;;;;;;;;;;;;;;;;5052762;28;20013;-65
2021/09/18 16:03:53;;;;;;;;;;;;;;;;;;5052290;28;20025;-65
2021/09/18 16:06:19;;;;;;;;;;;;;;;;;;5052570;28;20029;-66
2021/09/18 16:08:46;;;;;;;;;;;;;;;;;;5052758;28;20016;-65
2021/09/18 16:11:13;;;;;;;;;;;;;;;;;;5052531;28;20483;-65
2021/09/18 16:13:40;;;;;;;;;;;;;;;;;;5052357;28;20026;-66
2021/09/18 16:16:07;;;;;;;;;;;;;;;;;;5052261;28;20009;-66
2021/09/18 16:18:34;;;;;;;;;;;;;;;;;;5052401;28;20490;-66
2021/09/18 16:21:01;;;;;;;;;;;;;;;;;;5052599;28;20016;-65
2021/09/18 16:23:28;;;;;;;;;;;;;;;;;;5052367;28;20029;-66
2021/09/18 16:25:55;;;;;;;;;;;;;;;;;;5052026;28;20060;-65
2021/09/18 16:28:22;;;;;;;;;;;;;;;;;;5052149;28;20488;-65
2021/09/18 16:30:49;;;;;;;;;;;;;;;;;;5052322;28;20021;-65
2021/09/18 16:33:15;;;;;;;;;;;;;;;;;;5052502;28;20040;-65
2021/09/18 16:35:42;;;;;;;;;;;;;;;;;;5051754;28;20484;-66
2021/09/18 16:38:09;;;;;;;;;;;;;;;;;;5052235;28;20491;-65
2021/09/18 16:40:36;;;;;;;;;;;;;;;;;;5052416;28;20014;-66
2021/09/18 16:43:03;;;;;;;;;;;;;;;;;;5052239;28;20369;-65
2021/09/18 16:45:30;;;;;;;;;;;;;;;;;;5051623;28;20010;-65